sensor_id;sensor_type;location;lat;lon;timestamp;pressure;altitude;pressure_sealevel;temperature;humidity
77517;BME280;68414;53.946;27.634;2023-06-22T00:00:35;99128.515625;;;19.080000;70.191406
77517;BME280;68414;53.946;27.634;2023-06-22T00:01:35;99128.515625;;;19.080000;70.312500
77517;BME280;68414;53.946;27.634;2023-06-22T00:02:35;99130.921875;;;19.059999;70.342773
77517;BME280;68414;53.946;27.634;2023-06-22T00:03:35;99132.921875;;;19.090000;70.258789
77517;BME280;68414;53.946;27.634;2023-06-22T00:04:35;99132.921875;;;19.090000;70.270508
77517;BME280;68414;53.946;27.634;2023-06-22T00:05:35;99133.718750;;;19.100000;70.127930
77517;BME280;68414;53.946;27.634;2023-06-22T00:06:35;99133.742188;;;19.030001;70.800781
77517;BME280;68414;53.946;27.634;2023-06-22T00:07:35;99133.343750;;;19.010000;70.599609
77517;BME280;68414;53.946;27.634;2023-06-22T00:08:35;99127.796875;;;18.900000;71.166016
77517;BME280;68414;53.946;27.634;2023-06-22T00:09:35;99134.187500;;;18.799999;71.648438
77517;BME280;68414;53.946;27.634;2023-06-22T00:10:35;99123.437500;;;18.709999;72.296875
77517;BME280;68414;53.946;27.634;2023-06-22T00:11:36;99133.015625;;;18.670000;72.343750
77517;BME280;68414;53.946;27.634;2023-06-22T00:12:35;99128.656250;;;18.620001;72.535156
77517;BME280;68414;53.946;27.634;2023-06-22T00:13:35;99131.046875;;;18.639999;72.669922
77517;BME280;68414;53.946;27.634;2023-06-22T00:14:35;99129.031250;;;18.750000;72.048828
77517;BME280;68414;53.946;27.634;2023-06-22T00:15:36;99130.234375;;;18.770000;72.020508
77517;BME280;68414;53.946;27.634;2023-06-22T00:16:35;99132.585938;;;18.820000;71.586914
77517;BME280;68414;53.946;27.634;2023-06-22T00:17:35;99134.585938;;;18.850000;71.502930
77517;BME280;68414;53.946;27.634;2023-06-22T00:18:35;99135.390625;;;18.860001;71.524414
77517;BME280;68414;53.946;27.634;2023-06-22T00:19:35;99138.164062;;;18.889999;71.354492
77517;BME280;68414;53.946;27.634;2023-06-22T00:20:35;99137.359375;;;18.889999;71.342773
77517;BME280;68414;53.946;27.634;2023-06-22T00:21:35;99135.000000;;;18.840000;71.819336
77517;BME280;68414;53.946;27.634;2023-06-22T00:22:35;99131.820312;;;18.750000;72.038086
77517;BME280;68414;53.946;27.634;2023-06-22T00:23:35;99129.843750;;;18.680000;72.379883
77517;BME280;68414;53.946;27.634;2023-06-22T00:24:35;99135.031250;;;18.590000;72.949219
77517;BME280;68414;53.946;27.634;2023-06-22T00:25:36;99131.828125;;;18.680000;72.643555
77517;BME280;68414;53.946;27.634;2023-06-22T00:26:35;99132.203125;;;18.730000;72.112305
77517;BME280;68414;53.946;27.634;2023-06-22T00:27:35;99130.218750;;;18.740000;72.299805
77517;BME280;68414;53.946;27.634;2023-06-22T00:28:35;99132.609375;;;18.790001;72.154297
77517;BME280;68414;53.946;27.634;2023-06-22T00:29:35;99134.585938;;;18.850000;71.911133
77517;BME280;68414;53.946;27.634;2023-06-22T00:30:35;99126.601562;;;18.870001;71.891602
77517;BME280;68414;53.946;27.634;2023-06-22T00:31:35;99133.781250;;;18.850000;72.229492
77517;BME280;68414;53.946;27.634;2023-06-22T00:32:35;99133.796875;;;18.780001;72.693359
77517;BME280;68414;53.946;27.634;2023-06-22T00:33:35;99126.640625;;;18.700001;73.032227
77517;BME280;68414;53.946;27.634;2023-06-22T00:34:35;99133.007812;;;18.740000;72.785156
77517;BME280;68414;53.946;27.634;2023-06-22T00:35:35;99132.617188;;;18.719999;72.880859
77517;BME280;68414;53.946;27.634;2023-06-22T00:36:35;99128.640625;;;18.730000;72.707031
77517;BME280;68414;53.946;27.634;2023-06-22T00:37:36;99126.632812;;;18.770000;72.614258
77517;BME280;68414;53.946;27.634;2023-06-22T00:38:35;99132.609375;;;18.790001;72.252930
77517;BME280;68414;53.946;27.634;2023-06-22T00:39:35;99127.031250;;;18.719999;72.847656
77517;BME280;68414;53.946;27.634;2023-06-22T00:40:35;99130.648438;;;18.620001;73.106445
77517;BME280;68414;53.946;27.634;2023-06-22T00:41:35;99131.437500;;;18.590000;73.654297
77517;BME280;68414;53.946;27.634;2023-06-22T00:42:35;99127.859375;;;18.620001;73.304688
77517;BME280;68414;53.946;27.634;2023-06-22T00:43:35;99133.015625;;;18.670000;72.972656
77517;BME280;68414;53.946;27.634;2023-06-22T00:44:36;99133.421875;;;18.719999;72.948242
77517;BME280;68414;53.946;27.634;2023-06-22T00:45:35;99125.437500;;;18.740000;72.830078
77517;BME280;68414;53.946;27.634;2023-06-22T00:46:35;99136.578125;;;18.780001;72.737305
77517;BME280;68414;53.946;27.634;2023-06-22T00:47:35;99127.421875;;;18.740000;73.248047
77517;BME280;68414;53.946;27.634;2023-06-22T00:48:35;99131.812500;;;18.709999;73.222656
77517;BME280;68414;53.946;27.634;2023-06-22T00:49:35;99124.218750;;;18.750000;73.041016
77517;BME280;68414;53.946;27.634;2023-06-22T00:50:35;99134.187500;;;18.799999;72.740234
77517;BME280;68414;53.946;27.634;2023-06-22T00:51:36;99134.195312;;;18.830000;72.437500
77517;BME280;68414;53.946;27.634;2023-06-22T00:52:35;99131.382812;;;18.870001;72.266602
77517;BME280;68414;53.946;27.634;2023-06-22T00:53:35;99125.000000;;;18.900000;72.181641
77517;BME280;68414;53.946;27.634;2023-06-22T00:54:36;99130.968750;;;18.879999;71.860352
77517;BME280;68414;53.946;27.634;2023-06-22T00:55:36;99131.796875;;;18.850000;71.822266
77517;BME280;68414;53.946;27.634;2023-06-22T00:56:35;99133.796875;;;18.780001;72.064453
77517;BME280;68414;53.946;27.634;2023-06-22T00:57:35;99133.812500;;;18.670000;72.862305
77517;BME280;68414;53.946;27.634;2023-06-22T00:58:36;99135.031250;;;18.590000;73.158203
77517;BME280;68414;53.946;27.634;2023-06-22T00:59:35;99141.421875;;;18.530001;73.467773
77517;BME280;68414;53.946;27.634;2023-06-22T01:00:36;99135.421875;;;18.400000;74.229492
77517;BME280;68414;53.946;27.634;2023-06-22T01:01:35;99140.218750;;;18.360001;74.342773
77517;BME280;68414;53.946;27.634;2023-06-22T01:02:35;99137.796875;;;18.350000;74.373047
77517;BME280;68414;53.946;27.634;2023-06-22T01:03:35;99140.601562;;;18.309999;74.423828
77517;BME280;68414;53.946;27.634;2023-06-22T01:04:36;99143.406250;;;18.280001;74.504883
77517;BME280;68414;53.946;27.634;2023-06-22T01:05:35;99143.390625;;;18.309999;74.709961
77517;BME280;68414;53.946;27.634;2023-06-22T01:06:38;99144.187500;;;18.420000;74.386719
77517;BME280;68414;53.946;27.634;2023-06-22T01:07:36;99146.210938;;;18.490000;74.067383
77517;BME280;68414;53.946;27.634;2023-06-22T01:09:36;99146.984375;;;18.559999;73.738281
77517;BME280;68414;53.946;27.634;2023-06-22T01:11:36;99138.203125;;;18.650000;73.267578
77517;BME280;68414;53.946;27.634;2023-06-22T01:12:38;99144.593750;;;18.650000;72.870117
77517;BME280;68414;53.946;27.634;2023-06-22T01:14:38;99143.781250;;;18.650000;73.245117
77517;BME280;68414;53.946;27.634;2023-06-22T01:16:36;99143.421875;;;18.559999;73.483398
77517;BME280;68414;53.946;27.634;2023-06-22T01:17:36;99135.820312;;;18.559999;73.517578
77517;BME280;68414;53.946;27.634;2023-06-22T01:18:36;99139.812500;;;18.520000;73.642578
77517;BME280;68414;53.946;27.634;2023-06-22T01:19:42;99143.406250;;;18.520000;73.686523
77517;BME280;68414;53.946;27.634;2023-06-22T01:20:35;99142.601562;;;18.520000;73.730469
77517;BME280;68414;53.946;27.634;2023-06-22T01:21:35;99143.812500;;;18.510000;73.794922
77517;BME280;68414;53.946;27.634;2023-06-22T01:25:43;99134.250000;;;18.549999;73.735352
77517;BME280;68414;53.946;27.634;2023-06-22T01:29:35;99140.593750;;;18.420000;73.812500
77517;BME280;68414;53.946;27.634;2023-06-22T01:30:35;99139.812500;;;18.340000;74.494141
77517;BME280;68414;53.946;27.634;2023-06-22T01:31:35;99140.203125;;;18.219999;74.815430
77517;BME280;68414;53.946;27.634;2023-06-22T01:32:36;99136.203125;;;18.190001;74.998047
77517;BME280;68414;53.946;27.634;2023-06-22T01:33:37;99139.406250;;;18.290001;74.440430
77517;BME280;68414;53.946;27.634;2023-06-22T01:34:35;99135.421875;;;18.330000;74.140625
77517;BME280;68414;53.946;27.634;2023-06-22T01:35:35;99134.632812;;;18.360001;73.891602
77517;BME280;68414;53.946;27.634;2023-06-22T01:36:35;99142.593750;;;18.379999;74.004883
77517;BME280;68414;53.946;27.634;2023-06-22T01:37:35;99136.226562;;;18.410000;73.943359
77517;BME280;68414;53.946;27.634;2023-06-22T01:38:35;99143.781250;;;18.440001;73.750000
77517;BME280;68414;53.946;27.634;2023-06-22T01:39:35;99138.203125;;;18.440001;73.871094
77517;BME280;68414;53.946;27.634;2023-06-22T01:40:35;99142.625000;;;18.450001;73.665039
77517;BME280;68414;53.946;27.634;2023-06-22T01:41:36;99141.812500;;;18.410000;73.976562
77517;BME280;68414;53.946;27.634;2023-06-22T01:42:36;99139.843750;;;18.450001;73.896484
77517;BME280;68414;53.946;27.634;2023-06-22T01:43:35;99139.843750;;;18.450001;73.675781
77517;BME280;68414;53.946;27.634;2023-06-22T01:44:35;99137.406250;;;18.400000;74.018555
77517;BME280;68414;53.946;27.634;2023-06-22T01:45:35;99132.625000;;;18.440001;73.948242
77517;BME280;68414;53.946;27.634;2023-06-22T01:46:36;99140.992188;;;18.440001;73.837891
77517;BME280;68414;53.946;27.634;2023-06-22T01:47:35;99146.195312;;;18.450001;73.884766
77517;BME280;68414;53.946;27.634;2023-06-22T01:48:35;99134.656250;;;18.469999;73.876953
77517;BME280;68414;53.946;27.634;2023-06-22T01:49:35;99135.851562;;;18.490000;73.846680
77517;BME280;68414;53.946;27.634;2023-06-22T01:50:35;99130.664062;;;18.510000;73.828125
77517;BME280;68414;53.946;27.634;2023-06-22T01:51:35;99131.453125;;;18.549999;73.756836
77517;BME280;68414;53.946;27.634;2023-06-22T01:52:35;99131.046875;;;18.570000;73.606445
77517;BME280;68414;53.946;27.634;2023-06-22T01:53:35;99121.078125;;;18.590000;73.422852
77517;BME280;68414;53.946;27.634;2023-06-22T01:54:36;99131.437500;;;18.590000;73.698242
77517;BME280;68414;53.946;27.634;2023-06-22T01:55:35;99129.468750;;;18.559999;73.593750
77517;BME280;68414;53.946;27.634;2023-06-22T01:56:35;99134.265625;;;18.450001;74.336914
77517;BME280;68414;53.946;27.634;2023-06-22T01:57:35;99130.250000;;;18.320000;74.973633
77517;BME280;68414;53.946;27.634;2023-06-22T01:58:36;99135.421875;;;18.330000;75.241211
77517;BME280;68414;53.946;27.634;2023-06-22T02:00:37;99122.281250;;;18.410000;74.560547
77517;BME280;68414;53.946;27.634;2023-06-22T02:01:38;99125.890625;;;18.450001;74.248047
77517;BME280;68414;53.946;27.634;2023-06-22T02:03:37;99124.250000;;;18.370001;75.081055
77517;BME280;68414;53.946;27.634;2023-06-22T02:06:36;99121.453125;;;18.370001;74.684570
77517;BME280;68414;53.946;27.634;2023-06-22T02:08:40;99121.484375;;;18.299999;74.860352
77517;BME280;68414;53.946;27.634;2023-06-22T02:09:35;99123.062500;;;18.309999;74.818359
77517;BME280;68414;53.946;27.634;2023-06-22T02:10:36;99114.312500;;;18.250000;75.050781
77517;BME280;68414;53.946;27.634;2023-06-22T02:11:36;99115.906250;;;18.299999;74.905273
77517;BME280;68414;53.946;27.634;2023-06-22T02:12:35;99116.312500;;;18.209999;75.550781
77517;BME280;68414;53.946;27.634;2023-06-22T02:13:36;99111.921875;;;18.160000;75.873047
77517;BME280;68414;53.946;27.634;2023-06-22T02:14:35;99111.531250;;;18.139999;75.815430
77517;BME280;68414;53.946;27.634;2023-06-22T02:15:35;99117.500000;;;18.160000;75.829102
77517;BME280;68414;53.946;27.634;2023-06-22T02:16:35;99113.890625;;;18.190001;75.525391
77517;BME280;68414;53.946;27.634;2023-06-22T02:17:35;99107.929688;;;18.139999;75.912109
77517;BME280;68414;53.946;27.634;2023-06-22T02:18:35;99113.109375;;;18.120001;76.107422
77517;BME280;68414;53.946;27.634;2023-06-22T02:19:36;99115.093750;;;18.110001;76.195312
77517;BME280;68414;53.946;27.634;2023-06-22T02:21:35;99115.085938;;;18.040001;76.325195
77517;BME280;68414;53.946;27.634;2023-06-22T02:22:35;99113.500000;;;18.070000;76.077148
77517;BME280;68414;53.946;27.634;2023-06-22T02:23:35;99110.718750;;;18.030001;76.368164
77517;BME280;68414;53.946;27.634;2023-06-22T02:24:35;99106.734375;;;18.110001;76.084961
77517;BME280;68414;53.946;27.634;2023-06-22T02:25:35;99107.921875;;;18.170000;75.578125
77517;BME280;68414;53.946;27.634;2023-06-22T02:26:35;99109.906250;;;18.240000;75.467773
77517;BME280;68414;53.946;27.634;2023-06-22T02:27:35;99108.312500;;;18.299999;75.148438
77517;BME280;68414;53.946;27.634;2023-06-22T02:28:35;99119.875000;;;18.360001;74.893555
77517;BME280;68414;53.946;27.634;2023-06-22T02:29:35;99114.296875;;;18.360001;74.949219
77517;BME280;68414;53.946;27.634;2023-06-22T02:30:35;99111.093750;;;18.370001;75.016602
77517;BME280;68414;53.946;27.634;2023-06-22T02:31:35;99119.062500;;;18.389999;75.106445
77517;BME280;68414;53.946;27.634;2023-06-22T02:32:35;99119.062500;;;18.389999;75.161133
77517;BME280;68414;53.946;27.634;2023-06-22T02:33:35;99120.671875;;;18.400000;74.999023
77517;BME280;68414;53.946;27.634;2023-06-22T02:34:35;99110.296875;;;18.440001;74.774414
77517;BME280;68414;53.946;27.634;2023-06-22T02:35:35;99115.515625;;;18.490000;74.507812
77517;BME280;68414;53.946;27.634;2023-06-22T02:36:35;99113.921875;;;18.510000;74.478516
77517;BME280;68414;53.946;27.634;2023-06-22T02:37:36;99109.539062;;;18.469999;74.769531
77517;BME280;68414;53.946;27.634;2023-06-22T02:38:35;99112.703125;;;18.520000;74.458008
77517;BME280;68414;53.946;27.634;2023-06-22T02:39:35;99111.484375;;;18.600000;74.207031
77517;BME280;68414;53.946;27.634;2023-06-22T02:40:35;99111.500000;;;18.639999;74.125000
77517;BME280;68414;53.946;27.634;2023-06-22T02:41:35;99111.898438;;;18.660000;74.139648
77517;BME280;68414;53.946;27.634;2023-06-22T02:42:35;99113.898438;;;18.690001;74.088867
77517;BME280;68414;53.946;27.634;2023-06-22T02:43:35;99107.492188;;;18.719999;73.906250
77517;BME280;68414;53.946;27.634;2023-06-22T02:44:35;99111.476562;;;18.740000;73.911133
77517;BME280;68414;53.946;27.634;2023-06-22T02:45:35;99111.476562;;;18.740000;73.899414
77517;BME280;68414;53.946;27.634;2023-06-22T02:46:35;99121.031250;;;18.730000;73.898438
77517;BME280;68414;53.946;27.634;2023-06-22T02:47:35;99117.468750;;;18.730000;74.129883
77517;BME280;68414;53.946;27.634;2023-06-22T02:48:35;99113.468750;;;18.740000;74.019531
77517;BME280;68414;53.946;27.634;2023-06-22T02:49:35;99118.250000;;;18.770000;74.125000
77517;BME280;68414;53.946;27.634;2023-06-22T02:50:35;99120.265625;;;18.660000;74.525391
77517;BME280;68414;53.946;27.634;2023-06-22T02:51:35;99121.468750;;;18.540001;75.233398
77517;BME280;68414;53.946;27.634;2023-06-22T02:52:35;99120.296875;;;18.549999;75.145508
77517;BME280;68414;53.946;27.634;2023-06-22T02:53:35;99118.703125;;;18.510000;75.292969
77517;BME280;68414;53.946;27.634;2023-06-22T02:54:35;99120.296875;;;18.549999;75.585938
77517;BME280;68414;53.946;27.634;2023-06-22T02:55:35;99113.906250;;;18.620001;75.089844
77517;BME280;68414;53.946;27.634;2023-06-22T02:56:35;99117.875000;;;18.680000;74.770508
77517;BME280;68414;53.946;27.634;2023-06-22T02:57:35;99119.046875;;;18.740000;74.603516
77517;BME280;68414;53.946;27.634;2023-06-22T02:58:35;99117.437500;;;18.799999;74.382812
77517;BME280;68414;53.946;27.634;2023-06-22T02:59:36;99114.265625;;;18.809999;74.099609
77517;BME280;68414;53.946;27.634;2023-06-22T03:00:35;99115.835938;;;18.820000;74.420898
77517;BME280;68414;53.946;27.634;2023-06-22T03:01:35;99119.046875;;;18.809999;74.749023
77517;BME280;68414;53.946;27.634;2023-06-22T03:02:35;99115.437500;;;18.870001;74.340820
77517;BME280;68414;53.946;27.634;2023-06-22T03:03:35;99121.796875;;;18.910000;74.215820
77517;BME280;68414;53.946;27.634;2023-06-22T03:04:35;99118.218750;;;18.950001;73.998047
77517;BME280;68414;53.946;27.634;2023-06-22T03:05:35;99121.375000;;;19.000000;73.822266
77517;BME280;68414;53.946;27.634;2023-06-22T03:06:35;99121.375000;;;19.000000;73.822266
77517;BME280;68414;53.946;27.634;2023-06-22T03:07:35;99126.984375;;;18.969999;74.279297
77517;BME280;68414;53.946;27.634;2023-06-22T03:08:35;99128.156250;;;19.030001;74.133789
77517;BME280;68414;53.946;27.634;2023-06-22T03:09:35;99124.953125;;;19.040001;74.004883
77517;BME280;68414;53.946;27.634;2023-06-22T03:10:35;99130.125000;;;19.090000;74.012695
77517;BME280;68414;53.946;27.634;2023-06-22T03:11:35;99131.703125;;;19.139999;74.031250
77517;BME280;68414;53.946;27.634;2023-06-22T03:12:36;99120.921875;;;19.160000;73.890625
77517;BME280;68414;53.946;27.634;2023-06-22T03:13:35;99126.117188;;;19.100000;74.059570
77517;BME280;68414;53.946;27.634;2023-06-22T03:14:35;99118.562500;;;19.040001;74.621094
77517;BME280;68414;53.946;27.634;2023-06-22T03:15:35;99125.343750;;;19.100000;74.554688
77517;BME280;68414;53.946;27.634;2023-06-22T03:16:35;99126.125000;;;19.139999;74.295898
77517;BME280;68414;53.946;27.634;2023-06-22T03:17:35;99127.289062;;;19.200001;73.964844
77517;BME280;68414;53.946;27.634;2023-06-22T03:18:35;99122.062500;;;19.250000;73.873047
77517;BME280;68414;53.946;27.634;2023-06-22T03:19:35;99118.890625;;;19.270000;73.976562
77517;BME280;68414;53.946;27.634;2023-06-22T03:20:35;99126.437500;;;19.330000;73.533203
77517;BME280;68414;53.946;27.634;2023-06-22T03:21:37;99128.437500;;;19.400000;73.246094
77517;BME280;68414;53.946;27.634;2023-06-22T03:22:39;99127.609375;;;19.459999;72.826172
77517;BME280;68414;53.946;27.634;2023-06-22T03:23:36;99133.171875;;;19.500000;72.666992
77517;BME280;68414;53.946;27.634;2023-06-22T03:24:35;99127.546875;;;19.570000;72.491211
77517;BME280;68414;53.946;27.634;2023-06-22T03:25:35;99127.523438;;;19.600000;72.417969
77517;BME280;68414;53.946;27.634;2023-06-22T03:26:35;99123.531250;;;19.610001;72.255859
77517;BME280;68414;53.946;27.634;2023-06-22T03:28:35;99125.140625;;;19.590000;72.693359
77517;BME280;68414;53.946;27.634;2023-06-22T03:29:35;99133.945312;;;19.540001;73.103516
77517;BME280;68414;53.946;27.634;2023-06-22T03:30:35;99129.929688;;;19.580000;72.150391
77517;BME280;68414;53.946;27.634;2023-06-22T03:31:35;99130.312500;;;19.639999;72.579102
77517;BME280;68414;53.946;27.634;2023-06-22T03:32:35;99131.476562;;;19.660000;72.782227
77517;BME280;68414;53.946;27.634;2023-06-22T03:33:35;99125.851562;;;19.740000;72.164062
77517;BME280;68414;53.946;27.634;2023-06-22T03:34:35;99123.437500;;;19.790001;72.570312
77517;BME280;68414;53.946;27.634;2023-06-22T03:35:35;99125.007812;;;19.840000;72.201172
77517;BME280;68414;53.946;27.634;2023-06-22T03:36:35;99124.164062;;;19.900000;72.079102
77517;BME280;68414;53.946;27.634;2023-06-22T03:37:35;99130.906250;;;19.959999;71.680664
77517;BME280;68414;53.946;27.634;2023-06-22T03:38:35;99123.664062;;;20.020000;71.136719
77517;BME280;68414;53.946;27.634;2023-06-22T03:39:35;99126.812500;;;20.080000;71.333984
77517;BME280;68414;53.946;27.634;2023-06-22T03:40:35;99132.015625;;;20.090000;71.291016
77517;BME280;68414;53.946;27.634;2023-06-22T03:41:35;99126.375000;;;20.129999;71.220703
77517;BME280;68414;53.946;27.634;2023-06-22T03:42:35;99125.953125;;;20.180000;70.818359
77517;BME280;68414;53.946;27.634;2023-06-22T03:43:35;99125.937500;;;20.209999;70.525391
77517;BME280;68414;53.946;27.634;2023-06-22T03:44:35;99133.484375;;;20.280001;70.423828
77517;BME280;68414;53.946;27.634;2023-06-22T03:45:35;99122.656250;;;20.330000;70.068359
77517;BME280;68414;53.946;27.634;2023-06-22T03:46:35;99116.640625;;;20.350000;69.958984
77517;BME280;68414;53.946;27.634;2023-06-22T03:47:35;99127.781250;;;20.420000;70.003906
77517;BME280;68414;53.946;27.634;2023-06-22T03:48:35;99115.734375;;;20.450001;70.185547
77517;BME280;68414;53.946;27.634;2023-06-22T03:49:35;99112.921875;;;20.490000;70.125000
77517;BME280;68414;53.946;27.634;2023-06-22T03:50:35;99125.265625;;;20.549999;70.255859
77517;BME280;68414;53.946;27.634;2023-06-22T03:51:35;99122.414062;;;20.580000;70.172852
77517;BME280;68414;53.946;27.634;2023-06-22T03:52:35;99124.781250;;;20.629999;70.036133
77517;BME280;68414;53.946;27.634;2023-06-22T03:53:35;99123.156250;;;20.660000;70.029297
77517;BME280;68414;53.946;27.634;2023-06-22T03:54:35;99123.109375;;;20.690001;69.713867
77517;BME280;68414;53.946;27.634;2023-06-22T03:55:35;99121.867188;;;20.740000;69.177734
77517;BME280;68414;53.946;27.634;2023-06-22T03:56:35;99124.625000;;;20.770000;68.882812
77517;BME280;68414;53.946;27.634;2023-06-22T03:57:35;99123.796875;;;20.799999;68.655273
77517;BME280;68414;53.946;27.634;2023-06-22T03:58:35;99124.929688;;;20.860001;68.575195
77517;BME280;68414;53.946;27.634;2023-06-22T03:59:35;99126.156250;;;20.850000;68.906250
77517;BME280;68414;53.946;27.634;2023-06-22T04:00:35;99121.257812;;;20.930000;69.029297
77517;BME280;68414;53.946;27.634;2023-06-22T04:01:35;99117.156250;;;21.010000;68.764648
77517;BME280;68414;53.946;27.634;2023-06-22T04:02:35;99124.343750;;;21.049999;68.572266
77517;BME280;68414;53.946;27.634;2023-06-22T04:03:35;99124.718750;;;21.070000;67.109375
77517;BME280;68414;53.946;27.634;2023-06-22T04:04:35;99121.843750;;;21.139999;65.185547
77517;BME280;68414;53.946;27.634;2023-06-22T04:05:35;99119.414062;;;21.170000;66.223633
77517;BME280;68414;53.946;27.634;2023-06-22T04:06:35;99129.718750;;;21.270000;66.159180
77517;BME280;68414;53.946;27.634;2023-06-22T04:07:35;99122.375000;;;21.360001;66.119141
77517;BME280;68414;53.946;27.634;2023-06-22T04:08:35;99126.265625;;;21.459999;65.821289
77517;BME280;68414;53.946;27.634;2023-06-22T04:09:35;99124.953125;;;21.540001;65.077148
77517;BME280;68414;53.946;27.634;2023-06-22T04:10:35;99124.492188;;;21.590000;64.572266
77517;BME280;68414;53.946;27.634;2023-06-22T04:11:35;99124.062500;;;21.600000;64.108398
77517;BME280;68414;53.946;27.634;2023-06-22T04:12:35;99130.843750;;;21.629999;63.966797
77517;BME280;68414;53.946;27.634;2023-06-22T04:13:35;99127.976562;;;21.660000;63.826172
77517;BME280;68414;53.946;27.634;2023-06-22T04:14:35;99132.390625;;;21.670000;63.094727
77517;BME280;68414;53.946;27.634;2023-06-22T04:15:35;99125.882812;;;21.740000;63.146484
77517;BME280;68414;53.946;27.634;2023-06-22T04:16:35;99126.656250;;;21.740000;62.825195
77517;BME280;68414;53.946;27.634;2023-06-22T04:17:35;99119.375000;;;21.799999;63.422852
77517;BME280;68414;53.946;27.634;2023-06-22T04:18:35;99118.546875;;;21.830000;63.495117
77517;BME280;68414;53.946;27.634;2023-06-22T04:19:35;99121.750000;;;21.820000;63.626953
77517;BME280;68414;53.946;27.634;2023-06-22T04:20:35;99124.484375;;;21.889999;64.058594
77517;BME280;68414;53.946;27.634;2023-06-22T04:21:35;99120.250000;;;22.040001;65.028320
77517;BME280;68414;53.946;27.634;2023-06-22T04:22:35;99114.898438;;;22.129999;64.773438
77517;BME280;68414;53.946;27.634;2023-06-22T04:23:35;99121.109375;;;22.240000;64.611328
77517;BME280;68414;53.946;27.634;2023-06-22T04:24:35;99112.460938;;;22.379999;63.996094
77517;BME280;68414;53.946;27.634;2023-06-22T04:25:35;99116.000000;;;22.420000;64.180664
77517;BME280;68414;53.946;27.634;2023-06-22T04:26:35;99116.171875;;;22.549999;63.651367
77517;BME280;68414;53.946;27.634;2023-06-22T04:27:35;99123.234375;;;22.670000;62.417969
77517;BME280;68414;53.946;27.634;2023-06-22T04:28:35;99112.593750;;;22.780001;62.278320
77517;BME280;68414;53.946;27.634;2023-06-22T04:29:35;99117.078125;;;22.950001;61.698242
77517;BME280;68414;53.946;27.634;2023-06-22T04:30:35;99114.859375;;;23.059999;59.367188
77517;BME280;68414;53.946;27.634;2023-06-22T04:31:35;99116.164062;;;23.209999;60.795898
77517;BME280;68414;53.946;27.634;2023-06-22T04:32:35;99115.140625;;;23.309999;59.534180
77517;BME280;68414;53.946;27.634;2023-06-22T04:33:35;99116.328125;;;23.330000;57.826172
77517;BME280;68414;53.946;27.634;2023-06-22T04:34:35;99120.296875;;;23.360001;57.436523
77517;BME280;68414;53.946;27.634;2023-06-22T04:35:35;99124.671875;;;23.370001;57.248047
77517;BME280;68414;53.946;27.634;2023-06-22T04:36:35;99122.609375;;;23.410000;56.983398
77517;BME280;68414;53.946;27.634;2023-06-22T04:37:35;99118.109375;;;23.440001;56.684570
77517;BME280;68414;53.946;27.634;2023-06-22T04:38:35;99116.593750;;;23.389999;56.801758
77517;BME280;68414;53.946;27.634;2023-06-22T04:39:35;99118.281250;;;23.370001;56.989258
77517;BME280;68414;53.946;27.634;2023-06-22T04:40:35;99119.546875;;;23.320000;57.508789
77517;BME280;68414;53.946;27.634;2023-06-22T04:41:35;99122.773438;;;23.299999;57.743164
77517;BME280;68414;53.946;27.634;2023-06-22T04:42:37;99122.421875;;;23.280001;57.549805
77517;BME280;68414;53.946;27.634;2023-06-22T04:43:35;99120.046875;;;23.270000;57.637695
77517;BME280;68414;53.946;27.634;2023-06-22T04:44:35;99115.632812;;;23.260000;57.367188
77517;BME280;68414;53.946;27.634;2023-06-22T04:45:35;99114.421875;;;23.270000;57.558594
77517;BME280;68414;53.946;27.634;2023-06-22T04:46:35;99123.968750;;;23.330000;57.534180
77517;BME280;68414;53.946;27.634;2023-06-22T04:47:35;99121.156250;;;23.330000;57.724609